sensor_id;sensor_type;location;lat;lon;timestamp;P1;durP1;ratioP1;P2;durP2;ratioP2
19213;SDS011;9741;51.020;5.304;2023-02-17T00:01:24;1.47;;;1.37;;
19213;SDS011;9741;51.020;5.304;2023-02-17T00:03:52;1.20;;;1.10;;
19213;SDS011;9741;51.020;5.304;2023-02-17T00:06:21;2.47;;;1.77;;
19213;SDS011;9741;51.020;5.304;2023-02-17T00:08:50;2.53;;;1.10;;
19213;SDS011;9741;51.020;5.304;2023-02-17T00:11:17;1.60;;;1.33;;
19213;SDS011;9741;51.020;5.304;2023-02-17T00:13:45;2.00;;;1.67;;
19213;SDS011;9741;51.020;5.304;2023-02-17T00:16:14;5.93;;;1.37;;
19213;SDS011;9741;51.020;5.304;2023-02-17T00:18:43;1.10;;;1.03;;
19213;SDS011;9741;51.020;5.304;2023-02-17T00:21:11;4.23;;;1.13;;
19213;SDS011;9741;51.020;5.304;2023-02-17T00:23:39;1.73;;;1.50;;
19213;SDS011;9741;51.020;5.304;2023-02-17T00:26:08;2.00;;;1.50;;
19213;SDS011;9741;51.020;5.304;2023-02-17T00:28:35;1.53;;;1.43;;
19213;SDS011;9741;51.020;5.304;2023-02-17T00:31:06;1.90;;;1.27;;
19213;SDS011;9741;51.020;5.304;2023-02-17T00:33:34;1.13;;;0.80;;
19213;SDS011;9741;51.020;5.304;2023-02-17T00:36:02;0.73;;;0.70;;
19213;SDS011;9741;51.020;5.304;2023-02-17T00:38:30;2.23;;;1.77;;
19213;SDS011;9741;51.020;5.304;2023-02-17T00:40:57;3.20;;;1.67;;
19213;SDS011;9741;51.020;5.304;2023-02-17T00:43:25;1.27;;;1.13;;
19213;SDS011;9741;51.020;5.304;2023-02-17T00:45:52;2.20;;;1.30;;
19213;SDS011;9741;51.020;5.304;2023-02-17T00:48:19;2.87;;;1.53;;
19213;SDS011;9741;51.020;5.304;2023-02-17T00:50:46;0.87;;;0.87;;
19213;SDS011;9741;51.020;5.304;2023-02-17T00:53:14;3.13;;;1.23;;
19213;SDS011;9741;51.020;5.304;2023-02-17T00:55:41;1.70;;;1.60;;
19213;SDS011;9741;51.020;5.304;2023-02-17T00:58:10;2.00;;;1.57;;
19213;SDS011;9741;51.020;5.304;2023-02-17T01:00:44;2.13;;;1.63;;
19213;SDS011;9741;51.020;5.304;2023-02-17T01:03:18;1.87;;;1.43;;
19213;SDS011;9741;51.020;5.304;2023-02-17T01:05:51;1.40;;;1.30;;
19213;SDS011;9741;51.020;5.304;2023-02-17T01:08:25;3.40;;;2.07;;
19213;SDS011;9741;51.020;5.304;2023-02-17T01:10:58;2.03;;;1.73;;
19213;SDS011;9741;51.020;5.304;2023-02-17T01:13:30;1.07;;;0.93;;
19213;SDS011;9741;51.020;5.304;2023-02-17T01:16:05;2.43;;;1.37;;
19213;SDS011;9741;51.020;5.304;2023-02-17T01:18:46;1.00;;;1.00;;
19213;SDS011;9741;51.020;5.304;2023-02-17T01:21:21;2.00;;;1.87;;
19213;SDS011;9741;51.020;5.304;2023-02-17T01:23:56;1.27;;;0.87;;
19213;SDS011;9741;51.020;5.304;2023-02-17T01:26:31;1.27;;;1.20;;
19213;SDS011;9741;51.020;5.304;2023-02-17T01:29:03;2.97;;;1.83;;
19213;SDS011;9741;51.020;5.304;2023-02-17T01:31:33;0.93;;;0.93;;
19213;SDS011;9741;51.020;5.304;2023-02-17T01:34:01;1.50;;;1.13;;
19213;SDS011;9741;51.020;5.304;2023-02-17T01:36:30;1.07;;;1.00;;
19213;SDS011;9741;51.020;5.304;2023-02-17T01:38:58;1.57;;;1.43;;
19213;SDS011;9741;51.020;5.304;2023-02-17T01:41:26;2.77;;;1.10;;
19213;SDS011;9741;51.020;5.304;2023-02-17T01:44:03;1.53;;;1.30;;
19213;SDS011;9741;51.020;5.304;2023-02-17T01:46:34;1.33;;;1.13;;
19213;SDS011;9741;51.020;5.304;2023-02-17T01:49:03;1.10;;;1.00;;
19213;SDS011;9741;51.020;5.304;2023-02-17T01:51:36;1.47;;;1.27;;
19213;SDS011;9741;51.020;5.304;2023-02-17T01:54:05;1.37;;;1.30;;
19213;SDS011;9741;51.020;5.304;2023-02-17T01:56:34;1.97;;;1.20;;
19213;SDS011;9741;51.020;5.304;2023-02-17T01:59:06;1.17;;;1.07;;
19213;SDS011;9741;51.020;5.304;2023-02-17T02:01:38;1.43;;;1.13;;
19213;SDS011;9741;51.020;5.304;2023-02-17T02:04:05;1.30;;;1.20;;
19213;SDS011;9741;51.020;5.304;2023-02-17T02:06:33;0.80;;;0.80;;
19213;SDS011;9741;51.020;5.304;2023-02-17T02:09:03;0.90;;;0.90;;
19213;SDS011;9741;51.020;5.304;2023-02-17T02:11:33;2.80;;;1.70;;
19213;SDS011;9741;51.020;5.304;2023-02-17T02:14:00;0.70;;;0.70;;
19213;SDS011;9741;51.020;5.304;2023-02-17T02:16:31;0.53;;;0.53;;
19213;SDS011;9741;51.020;5.304;2023-02-17T02:19:10;0.93;;;0.87;;
19213;SDS011;9741;51.020;5.304;2023-02-17T02:24:58;1.37;;;0.90;;
19213;SDS011;9741;51.020;5.304;2023-02-17T02:27:44;1.17;;;0.97;;
19213;SDS011;9741;51.020;5.304;2023-02-17T02:33:23;1.03;;;1.00;;
19213;SDS011;9741;51.020;5.304;2023-02-17T02:35:56;0.80;;;0.80;;
19213;SDS011;9741;51.020;5.304;2023-02-17T02:38:31;0.80;;;0.80;;
19213;SDS011;9741;51.020;5.304;2023-02-17T02:41:03;2.53;;;1.40;;
19213;SDS011;9741;51.020;5.304;2023-02-17T02:43:34;0.57;;;0.57;;
19213;SDS011;9741;51.020;5.304;2023-02-17T02:46:02;0.50;;;0.50;;
19213;SDS011;9741;51.020;5.304;2023-02-17T02:48:31;0.90;;;0.90;;
19213;SDS011;9741;51.020;5.304;2023-02-17T02:51:08;0.87;;;0.87;;
19213;SDS011;9741;51.020;5.304;2023-02-17T02:53:53;0.50;;;0.50;;
19213;SDS011;9741;51.020;5.304;2023-02-17T02:56:38;0.77;;;0.77;;
19213;SDS011;9741;51.020;5.304;2023-02-17T02:59:15;1.77;;;0.87;;
19213;SDS011;9741;51.020;5.304;2023-02-17T03:01:54;1.47;;;0.60;;
19213;SDS011;9741;51.020;5.304;2023-02-17T03:04:33;0.83;;;0.83;;
19213;SDS011;9741;51.020;5.304;2023-02-17T03:07:04;0.27;;;0.27;;
19213;SDS011;9741;51.020;5.304;2023-02-17T03:09:35;0.83;;;0.53;;
19213;SDS011;9741;51.020;5.304;2023-02-17T03:12:03;0.83;;;0.80;;
19213;SDS011;9741;51.020;5.304;2023-02-17T03:14:33;1.40;;;0.90;;
19213;SDS011;9741;51.020;5.304;2023-02-17T03:17:03;0.40;;;0.40;;
19213;SDS011;9741;51.020;5.304;2023-02-17T03:19:32;1.93;;;0.87;;
19213;SDS011;9741;51.020;5.304;2023-02-17T03:22:00;2.33;;;1.00;;
19213;SDS011;9741;51.020;5.304;2023-02-17T03:24:34;0.73;;;0.73;;
19213;SDS011;9741;51.020;5.304;2023-02-17T03:27:01;0.93;;;0.60;;
19213;SDS011;9741;51.020;5.304;2023-02-17T03:29:28;1.23;;;0.90;;
19213;SDS011;9741;51.020;5.304;2023-02-17T03:31:55;1.97;;;0.83;;
19213;SDS011;9741;51.020;5.304;2023-02-17T03:34:22;1.43;;;0.83;;
19213;SDS011;9741;51.020;5.304;2023-02-17T03:36:51;1.40;;;0.77;;
19213;SDS011;9741;51.020;5.304;2023-02-17T03:39:18;0.60;;;0.60;;
19213;SDS011;9741;51.020;5.304;2023-02-17T03:41:45;3.37;;;0.97;;
19213;SDS011;9741;51.020;5.304;2023-02-17T03:44:14;0.60;;;0.60;;
19213;SDS011;9741;51.020;5.304;2023-02-17T03:46:41;1.90;;;0.60;;
19213;SDS011;9741;51.020;5.304;2023-02-17T03:49:08;3.27;;;0.97;;
19213;SDS011;9741;51.020;5.304;2023-02-17T03:51:35;0.30;;;0.30;;
19213;SDS011;9741;51.020;5.304;2023-02-17T03:54:04;0.37;;;0.37;;
19213;SDS011;9741;51.020;5.304;2023-02-17T03:56:31;1.03;;;0.80;;
19213;SDS011;9741;51.020;5.304;2023-02-17T03:58:58;0.60;;;0.60;;
19213;SDS011;9741;51.020;5.304;2023-02-17T04:01:25;0.83;;;0.50;;
19213;SDS011;9741;51.020;5.304;2023-02-17T04:03:52;0.80;;;0.80;;
19213;SDS011;9741;51.020;5.304;2023-02-17T04:06:19;0.73;;;0.73;;
19213;SDS011;9741;51.020;5.304;2023-02-17T04:08:46;1.43;;;1.17;;
19213;SDS011;9741;51.020;5.304;2023-02-17T04:11:15;1.63;;;1.00;;
19213;SDS011;9741;51.020;5.304;2023-02-17T04:13:42;0.70;;;0.70;;
19213;SDS011;9741;51.020;5.304;2023-02-17T04:16:09;2.87;;;1.10;;
19213;SDS011;9741;51.020;5.304;2023-02-17T04:18:37;0.53;;;0.53;;
19213;SDS011;9741;51.020;5.304;2023-02-17T04:21:04;0.77;;;0.67;;
19213;SDS011;9741;51.020;5.304;2023-02-17T04:23:32;0.90;;;0.80;;
19213;SDS011;9741;51.020;5.304;2023-02-17T04:26:00;1.00;;;0.90;;
19213;SDS011;9741;51.020;5.304;2023-02-17T04:28:28;0.97;;;0.80;;
19213;SDS011;9741;51.020;5.304;2023-02-17T04:30:56;4.87;;;0.93;;
19213;SDS011;9741;51.020;5.304;2023-02-17T04:33:24;0.80;;;0.60;;
19213;SDS011;9741;51.020;5.304;2023-02-17T04:35:51;1.13;;;0.87;;
19213;SDS011;9741;51.020;5.304;2023-02-17T04:38:23;7.60;;;0.70;;
19213;SDS011;9741;51.020;5.304;2023-02-17T04:40:52;1.07;;;1.03;;
19213;SDS011;9741;51.020;5.304;2023-02-17T04:43:19;0.50;;;0.50;;
19213;SDS011;9741;51.020;5.304;2023-02-17T04:45:48;0.80;;;0.77;;
19213;SDS011;9741;51.020;5.304;2023-02-17T04:48:15;0.60;;;0.50;;
19213;SDS011;9741;51.020;5.304;2023-02-17T04:50:42;0.53;;;0.53;;
19213;SDS011;9741;51.020;5.304;2023-02-17T04:53:09;1.00;;;0.80;;
19213;SDS011;9741;51.020;5.304;2023-02-17T04:55:38;0.70;;;0.70;;
19213;SDS011;9741;51.020;5.304;2023-02-17T04:58:05;0.97;;;0.90;;
19213;SDS011;9741;51.020;5.304;2023-02-17T05:00:32;1.13;;;0.87;;
19213;SDS011;9741;51.020;5.304;2023-02-17T05:03:01;0.57;;;0.57;;
19213;SDS011;9741;51.020;5.304;2023-02-17T05:05:28;0.83;;;0.83;;
19213;SDS011;9741;51.020;5.304;2023-02-17T05:07:55;2.73;;;1.30;;
19213;SDS011;9741;51.020;5.304;2023-02-17T05:10:22;1.30;;;0.67;;
19213;SDS011;9741;51.020;5.304;2023-02-17T05:12:49;1.50;;;0.97;;
19213;SDS011;9741;51.020;5.304;2023-02-17T05:15:16;0.60;;;0.60;;
19213;SDS011;9741;51.020;5.304;2023-02-17T05:17:44;1.00;;;0.80;;
19213;SDS011;9741;51.020;5.304;2023-02-17T05:20:12;0.70;;;0.70;;
19213;SDS011;9741;51.020;5.304;2023-02-17T05:22:39;0.70;;;0.63;;
19213;SDS011;9741;51.020;5.304;2023-02-17T05:25:07;1.50;;;0.80;;
19213;SDS011;9741;51.020;5.304;2023-02-17T05:27:34;1.00;;;1.00;;
19213;SDS011;9741;51.020;5.304;2023-02-17T05:30:01;4.30;;;1.40;;
19213;SDS011;9741;51.020;5.304;2023-02-17T05:32:29;3.30;;;1.07;;
19213;SDS011;9741;51.020;5.304;2023-02-17T05:34:56;1.40;;;1.17;;
19213;SDS011;9741;51.020;5.304;2023-02-17T05:37:24;1.70;;;0.90;;
19213;SDS011;9741;51.020;5.304;2023-02-17T05:39:52;1.83;;;1.17;;
19213;SDS011;9741;51.020;5.304;2023-02-17T05:42:19;1.43;;;1.03;;
19213;SDS011;9741;51.020;5.304;2023-02-17T05:44:46;2.33;;;1.83;;
19213;SDS011;9741;51.020;5.304;2023-02-17T05:47:13;1.57;;;1.03;;
19213;SDS011;9741;51.020;5.304;2023-02-17T05:49:40;2.43;;;1.67;;
19213;SDS011;9741;51.020;5.304;2023-02-17T05:52:07;1.30;;;1.20;;
19213;SDS011;9741;51.020;5.304;2023-02-17T05:54:35;3.50;;;2.03;;
19213;SDS011;9741;51.020;5.304;2023-02-17T05:57:02;3.23;;;2.50;;
19213;SDS011;9741;51.020;5.304;2023-02-17T05:59:29;2.97;;;1.43;;
19213;SDS011;9741;51.020;5.304;2023-02-17T06:01:56;2.47;;;1.77;;
19213;SDS011;9741;51.020;5.304;2023-02-17T06:04:23;3.33;;;2.57;;
19213;SDS011;9741;51.020;5.304;2023-02-17T06:06:50;3.27;;;2.47;;
19213;SDS011;9741;51.020;5.304;2023-02-17T06:09:17;1.87;;;1.77;;
19213;SDS011;9741;51.020;5.304;2023-02-17T06:11:46;3.50;;;1.63;;
19213;SDS011;9741;51.020;5.304;2023-02-17T06:14:13;6.93;;;2.47;;
19213;SDS011;9741;51.020;5.304;2023-02-17T06:16:39;3.03;;;2.27;;
19213;SDS011;9741;51.020;5.304;2023-02-17T06:19:06;2.93;;;1.73;;
19213;SDS011;9741;51.020;5.304;2023-02-17T06:21:33;4.50;;;2.03;;
19213;SDS011;9741;51.020;5.304;2023-02-17T06:24:01;3.13;;;2.23;;
19213;SDS011;9741;51.020;5.304;2023-02-17T06:26:28;3.37;;;2.33;;
19213;SDS011;9741;51.020;5.304;2023-02-17T06:28:56;1.50;;;1.40;;
19213;SDS011;9741;51.020;5.304;2023-02-17T06:31:23;3.60;;;2.50;;
19213;SDS011;9741;51.020;5.304;2023-02-17T06:33:50;1.87;;;1.40;;
19213;SDS011;9741;51.020;5.304;2023-02-17T06:36:17;2.40;;;1.73;;
19213;SDS011;9741;51.020;5.304;2023-02-17T06:38:44;3.07;;;2.13;;
19213;SDS011;9741;51.020;5.304;2023-02-17T06:41:11;4.87;;;1.97;;
19213;SDS011;9741;51.020;5.304;2023-02-17T06:43:38;3.07;;;1.73;;
19213;SDS011;9741;51.020;5.304;2023-02-17T06:46:06;1.30;;;1.20;;
19213;SDS011;9741;51.020;5.304;2023-02-17T06:48:33;2.50;;;1.90;;
19213;SDS011;9741;51.020;5.304;2023-02-17T06:51:00;4.90;;;2.53;;
19213;SDS011;9741;51.020;5.304;2023-02-17T06:53:27;2.63;;;2.37;;
19213;SDS011;9741;51.020;5.304;2023-02-17T06:55:54;2.37;;;1.73;;
19213;SDS011;9741;51.020;5.304;2023-02-17T06:58:21;2.57;;;2.13;;
19213;SDS011;9741;51.020;5.304;2023-02-17T07:00:48;3.73;;;2.33;;
19213;SDS011;9741;51.020;5.304;2023-02-17T07:03:17;2.83;;;2.07;;
19213;SDS011;9741;51.020;5.304;2023-02-17T07:05:44;5.20;;;2.67;;
19213;SDS011;9741;51.020;5.304;2023-02-17T07:08:11;4.03;;;2.67;;
19213;SDS011;9741;51.020;5.304;2023-02-17T07:10:38;3.83;;;2.20;;
19213;SDS011;9741;51.020;5.304;2023-02-17T07:13:05;2.63;;;2.43;;
19213;SDS011;9741;51.020;5.304;2023-02-17T07:15:33;3.47;;;1.83;;
19213;SDS011;9741;51.020;5.304;2023-02-17T07:18:00;2.60;;;1.87;;
19213;SDS011;9741;51.020;5.304;2023-02-17T07:20:29;1.73;;;1.53;;
19213;SDS011;9741;51.020;5.304;2023-02-17T07:22:57;3.33;;;2.43;;
19213;SDS011;9741;51.020;5.304;2023-02-17T07:25:24;2.30;;;1.73;;
19213;SDS011;9741;51.020;5.304;2023-02-17T07:27:51;3.33;;;2.23;;
19213;SDS011;9741;51.020;5.304;2023-02-17T07:30:19;1.67;;;1.50;;
19213;SDS011;9741;51.020;5.304;2023-02-17T07:32:46;4.27;;;2.37;;
19213;SDS011;9741;51.020;5.304;2023-02-17T07:35:13;4.27;;;2.70;;
19213;SDS011;9741;51.020;5.304;2023-02-17T07:37:42;3.63;;;2.17;;
19213;SDS011;9741;51.020;5.304;2023-02-17T07:40:09;2.33;;;2.13;;
19213;SDS011;9741;51.020;5.304;2023-02-17T07:42:37;4.30;;;2.43;;
19213;SDS011;9741;51.020;5.304;2023-02-17T07:45:04;4.03;;;2.37;;
19213;SDS011;9741;51.020;5.304;2023-02-17T07:47:32;3.07;;;1.77;;
19213;SDS011;9741;51.020;5.304;2023-02-17T07:49:59;6.43;;;2.60;;
19213;SDS011;9741;51.020;5.304;2023-02-17T07:52:26;2.97;;;2.37;;
19213;SDS011;9741;51.020;5.304;2023-02-17T07:54:54;5.27;;;2.87;;
19213;SDS011;9741;51.020;5.304;2023-02-17T07:57:21;2.10;;;1.70;;
19213;SDS011;9741;51.020;5.304;2023-02-17T07:59:48;2.53;;;2.03;;
19213;SDS011;9741;51.020;5.304;2023-02-17T08:02:15;1.53;;;1.23;;
19213;SDS011;9741;51.020;5.304;2023-02-17T08:04:43;3.50;;;2.03;;
19213;SDS011;9741;51.020;5.304;2023-02-17T08:07:10;2.93;;;2.07;;
19213;SDS011;9741;51.020;5.304;2023-02-17T08:09:37;5.47;;;2.30;;
19213;SDS011;9741;51.020;5.304;2023-02-17T08:12:23;3.27;;;1.87;;
19213;SDS011;9741;51.020;5.304;2023-02-17T08:15:08;2.23;;;1.70;;
19213;SDS011;9741;51.020;5.304;2023-02-17T08:17:36;1.17;;;0.90;;
19213;SDS011;9741;51.020;5.304;2023-02-17T08:20:03;1.87;;;1.60;;
19213;SDS011;9741;51.020;5.304;2023-02-17T08:22:31;3.00;;;1.90;;
19213;SDS011;9741;51.020;5.304;2023-02-17T08:24:58;2.07;;;1.47;;
19213;SDS011;9741;51.020;5.304;2023-02-17T08:27:27;3.57;;;2.00;;
19213;SDS011;9741;51.020;5.304;2023-02-17T08:29:54;2.10;;;1.67;;
19213;SDS011;9741;51.020;5.304;2023-02-17T08:32:21;6.83;;;1.67;;
19213;SDS011;9741;51.020;5.304;2023-02-17T08:34:48;1.63;;;1.43;;
19213;SDS011;9741;51.020;5.304;2023-02-17T08:37:16;4.27;;;1.90;;
19213;SDS011;9741;51.020;5.304;2023-02-17T08:39:43;1.07;;;0.97;;
19213;SDS011;9741;51.020;5.304;2023-02-17T08:42:10;3.03;;;2.00;;
19213;SDS011;9741;51.020;5.304;2023-02-17T08:44:38;1.60;;;1.50;;
19213;SDS011;9741;51.020;5.304;2023-02-17T08:47:05;3.47;;;2.47;;
19213;SDS011;9741;51.020;5.304;2023-02-17T08:49:34;1.80;;;1.50;;
19213;SDS011;9741;51.020;5.304;2023-02-17T08:52:01;1.23;;;1.00;;
19213;SDS011;9741;51.020;5.304;2023-02-17T08:54:29;3.00;;;2.03;;
19213;SDS011;9741;51.020;5.304;2023-02-17T08:56:56;1.63;;;1.13;;
19213;SDS011;9741;51.020;5.304;2023-02-17T08:59:23;1.80;;;1.50;;
19213;SDS011;9741;51.020;5.304;2023-02-17T09:01:52;2.10;;;1.63;;
19213;SDS011;9741;51.020;5.304;2023-02-17T09:04:19;2.67;;;1.47;;
19213;SDS011;9741;51.020;5.304;2023-02-17T09:06:47;1.73;;;1.63;;
19213;SDS011;9741;51.020;5.304;2023-02-17T09:09:17;4.00;;;2.23;;
19213;SDS011;9741;51.020;5.304;2023-02-17T09:11:46;2.97;;;1.90;;
19213;SDS011;9741;51.020;5.304;2023-02-17T09:14:14;3.67;;;1.63;;
19213;SDS011;9741;51.020;5.304;2023-02-17T09:16:41;2.23;;;1.63;;
19213;SDS011;9741;51.020;5.304;2023-02-17T09:19:09;3.80;;;1.63;;
19213;SDS011;9741;51.020;5.304;2023-02-17T09:21:36;2.07;;;1.57;;
19213;SDS011;9741;51.020;5.304;2023-02-17T09:24:04;2.57;;;1.50;;
19213;SDS011;9741;51.020;5.304;2023-02-17T09:26:31;3.03;;;1.53;;
19213;SDS011;9741;51.020;5.304;2023-02-17T09:29:00;3.60;;;1.13;;
19213;SDS011;9741;51.020;5.304;2023-02-17T09:31:28;2.10;;;1.77;;
19213;SDS011;9741;51.020;5.304;2023-02-17T09:33:56;2.20;;;1.60;;
19213;SDS011;9741;51.020;5.304;2023-02-17T09:36:25;2.10;;;1.47;;
19213;SDS011;9741;51.020;5.304;2023-02-17T09:38:54;0.93;;;0.83;;
19213;SDS011;9741;51.020;5.304;2023-02-17T09:41:22;3.27;;;1.90;;
19213;SDS011;9741;51.020;5.304;2023-02-17T09:43:52;2.07;;;1.20;;
19213;SDS011;9741;51.020;5.304;2023-02-17T09:46:21;3.53;;;1.43;;
19213;SDS011;9741;51.020;5.304;2023-02-17T09:48:53;2.03;;;1.30;;
19213;SDS011;9741;51.020;5.304;2023-02-17T09:51:26;2.27;;;1.40;;
19213;SDS011;9741;51.020;5.304;2023-02-17T09:53:59;3.23;;;1.90;;
19213;SDS011;9741;51.020;5.304;2023-02-17T09:56:32;1.30;;;1.07;;
19213;SDS011;9741;51.020;5.304;2023-02-17T09:59:02;2.23;;;1.53;;
19213;SDS011;9741;51.020;5.304;2023-02-17T10:01:34;3.60;;;1.83;;
19213;SDS011;9741;51.020;5.304;2023-02-17T10:04:04;2.83;;;1.33;;
19213;SDS011;9741;51.020;5.304;2023-02-17T10:06:36;6.87;;;2.30;;
19213;SDS011;9741;51.020;5.304;2023-02-17T10:09:06;2.03;;;1.53;;
19213;SDS011;9741;51.020;5.304;2023-02-17T10:11:38;4.60;;;1.90;;
19213;SDS011;9741;51.020;5.304;2023-02-17T10:14:11;2.03;;;1.63;;
19213;SDS011;9741;51.020;5.304;2023-02-17T10:16:44;2.00;;;1.03;;
19213;SDS011;9741;51.020;5.304;2023-02-17T10:19:17;5.30;;;2.23;;
19213;SDS011;9741;51.020;5.304;2023-02-17T10:21:54;2.07;;;1.43;;
19213;SDS011;9741;51.020;5.304;2023-02-17T10:24:27;2.87;;;1.60;;
19213;SDS011;9741;51.020;5.304;2023-02-17T10:27:00;3.20;;;2.00;;
19213;SDS011;9741;51.020;5.304;2023-02-17T10:29:44;1.30;;;1.20;;
19213;SDS011;9741;51.020;5.304;2023-02-17T10:32:22;1.10;;;1.00;;
19213;SDS011;9741;51.020;5.304;2023-02-17T10:34:55;2.53;;;1.20;;
19213;SDS011;9741;51.020;5.304;2023-02-17T10:37:39;1.07;;;0.90;;
19213;SDS011;9741;51.020;5.304;2023-02-17T10:40:13;3.20;;;1.43;;
19213;SDS011;9741;51.020;5.304;2023-02-17T10:42:48;0.75;;;0.70;;
19213;SDS011;9741;51.020;5.304;2023-02-17T10:45:19;0.93;;;0.70;;
19213;SDS011;9741;51.020;5.304;2023-02-17T10:47:51;1.43;;;0.80;;
19213;SDS011;9741;51.020;5.304;2023-02-17T10:50:23;1.80;;;0.73;;
19213;SDS011;9741;51.020;5.304;2023-02-17T10:52:52;0.43;;;0.43;;
19213;SDS011;9741;51.020;5.304;2023-02-17T10:55:23;1.07;;;0.80;;
19213;SDS011;9741;51.020;5.304;2023-02-17T10:57:57;3.75;;;1.08;;
19213;SDS011;9741;51.020;5.304;2023-02-17T11:00:30;0.30;;;0.30;;
19213;SDS011;9741;51.020;5.304;2023-02-17T11:02:57;0.90;;;0.75;;
19213;SDS011;9741;51.020;5.304;2023-02-17T11:05:25;1.10;;;0.47;;
19213;SDS011;9741;51.020;5.304;2023-02-17T11:07:55;1.17;;;0.93;;
19213;SDS011;9741;51.020;5.304;2023-02-17T11:10:26;0.30;;;0.30;;
19213;SDS011;9741;51.020;5.304;2023-02-17T11:12:55;0.52;;;0.50;;
19213;SDS011;9741;51.020;5.304;2023-02-17T11:15:24;0.38;;;0.38;;
19213;SDS011;9741;51.020;5.304;2023-02-17T11:17:54;0.50;;;0.50;;
19213;SDS011;9741;51.020;5.304;2023-02-17T11:20:27;0.85;;;0.68;;
19213;SDS011;9741;51.020;5.304;2023-02-17T11:23:04;1.23;;;0.70;;
19213;SDS011;9741;51.020;5.304;2023-02-17T11:25:35;0.10;;;0.10;;
19213;SDS011;9741;51.020;5.304;2023-02-17T11:28:03;0.60;;;0.47;;
19213;SDS011;9741;51.020;5.304;2023-02-17T11:30:33;1.20;;;0.63;;
19213;SDS011;9741;51.020;5.304;2023-02-17T11:33:10;0.60;;;0.60;;
19213;SDS011;9741;51.020;5.304;2023-02-17T11:35:44;0.35;;;0.35;;
19213;SDS011;9741;51.020;5.304;2023-02-17T11:38:17;0.38;;;0.38;;
19213;SDS011;9741;51.020;5.304;2023-02-17T11:40:53;0.43;;;0.43;;
19213;SDS011;9741;51.020;5.304;2023-02-17T11:43:22;2.67;;;1.40;;
19213;SDS011;9741;51.020;5.304;2023-02-17T11:52:08;0.60;;;0.22;;
19213;SDS011;9741;51.020;5.304;2023-02-17T11:54:47;0.77;;;0.77;;
19213;SDS011;9741;51.020;5.304;2023-02-17T11:57:26;0.40;;;0.38;;
19213;SDS011;9741;51.020;5.304;2023-02-17T12:00:04;0.28;;;0.28;;
19213;SDS011;9741;51.020;5.304;2023-02-17T12:05:49;0.28;;;0.28;;
19213;SDS011;9741;51.020;5.304;2023-02-17T12:08:21;0.63;;;0.30;;
19213;SDS011;9741;51.020;5.304;2023-02-17T12:11:00;0.32;;;0.32;;
19213;SDS011;9741;51.020;5.304;2023-02-17T12:13:37;0.43;;;0.33;;
19213;SDS011;9741;51.020;5.304;2023-02-17T12:16:13;0.70;;;0.55;;
19213;SDS011;9741;51.020;5.304;2023-02-17T12:18:54;0.30;;;0.30;;
19213;SDS011;9741;51.020;5.304;2023-02-17T12:21:31;0.85;;;0.50;;
19213;SDS011;9741;51.020;5.304;2023-02-17T12:24:22;0.20;;;0.20;;
19213;SDS011;9741;51.020;5.304;2023-02-17T12:27:04;0.30;;;0.30;;
19213;SDS011;9741;51.020;5.304;2023-02-17T12:29:46;0.40;;;0.40;;
19213;SDS011;9741;51.020;5.304;2023-02-17T12:32:26;0.32;;;0.32;;
19213;SDS011;9741;51.020;5.304;2023-02-17T12:35:02;0.40;;;0.40;;
19213;SDS011;9741;51.020;5.304;2023-02-17T12:37:41;0.20;;;0.20;;
19213;SDS011;9741;51.020;5.304;2023-02-17T12:40:15;0.10;;;0.10;;
19213;SDS011;9741;51.020;5.304;2023-02-17T12:42:56;0.70;;;0.65;;
19213;SDS011;9741;51.020;5.304;2023-02-17T12:45:29;0.28;;;0.28;;
19213;SDS011;9741;51.020;5.304;2023-02-17T12:48:03;0.57;;;0.57;;
19213;SDS011;9741;51.020;5.304;2023-02-17T12:50:36;0.10;;;0.10;;
19213;SDS011;9741;51.020;5.304;2023-02-17T12:53:07;0.50;;;0.50;;
19213;SDS011;9741;51.020;5.304;2023-02-17T12:55:39;0.20;;;0.20;;
19213;SDS011;9741;51.020;5.304;2023-02-17T12:58:14;0.20;;;0.20;;
19213;SDS011;9741;51.020;5.304;2023-02-17T13:00:45;0.30;;;0.30;;
19213;SDS011;9741;51.020;5.304;2023-02-17T13:03:14;0.20;;;0.20;;
19213;SDS011;9741;51.020;5.304;2023-02-17T13:05:43;0.22;;;0.22;;
19213;SDS011;9741;51.020;5.304;2023-02-17T13:08:15;0.30;;;0.30;;
19213;SDS011;9741;51.020;5.304;2023-02-17T13:10:46;0.50;;;0.50;;
19213;SDS011;9741;51.020;5.304;2023-02-17T13:13:27;0.28;;;0.28;;
19213;SDS011;9741;51.020;5.304;2023-02-17T13:16:00;0.30;;;0.30;;
19213;SDS011;9741;51.020;5.304;2023-02-17T13:18:30;0.40;;;0.40;;
19213;SDS011;9741;51.020;5.304;2023-02-17T13:20:58;0.40;;;0.40;;
19213;SDS011;9741;51.020;5.304;2023-02-17T13:23:28;0.10;;;0.10;;
19213;SDS011;9741;51.020;5.304;2023-02-17T13:26:23;0.20;;;0.20;;
19213;SDS011;9741;51.020;5.304;2023-02-17T13:29:04;2.72;;;0.35;;
19213;SDS011;9741;51.020;5.304;2023-02-17T13:31:44;0.30;;;0.30;;
19213;SDS011;9741;51.020;5.304;2023-02-17T13:34:22;0.10;;;0.10;;
19213;SDS011;9741;51.020;5.304;2023-02-17T13:36:55;0.22;;;0.22;;
19213;SDS011;9741;51.020;5.304;2023-02-17T13:42:27;4.80;;;0.73;;
19213;SDS011;9741;51.020;5.304;2023-02-17T13:45:15;2.10;;;0.30;;
19213;SDS011;9741;51.020;5.304;2023-02-17T13:47:46;0.20;;;0.20;;
19213;SDS011;9741;51.020;5.304;2023-02-17T13:50:26;0.43;;;0.30;;
19213;SDS011;9741;51.020;5.304;2023-02-17T13:52:54;1.58;;;0.50;;
19213;SDS011;9741;51.020;5.304;2023-02-17T13:55:22;1.60;;;0.20;;
19213;SDS011;9741;51.020;5.304;2023-02-17T13:57:51;0.20;;;0.20;;
19213;SDS011;9741;51.020;5.304;2023-02-17T14:00:21;0.20;;;0.20;;
19213;SDS011;9741;51.020;5.304;2023-02-17T14:02:51;0.10;;;0.10;;
19213;SDS011;9741;51.020;5.304;2023-02-17T14:05:20;0.10;;;0.10;;
19213;SDS011;9741;51.020;5.304;2023-02-17T14:07:55;0.20;;;0.20;;
19213;SDS011;9741;51.020;5.304;2023-02-17T14:10:25;0.20;;;0.20;;
19213;SDS011;9741;51.020;5.304;2023-02-17T14:12:52;0.13;;;0.13;;
19213;SDS011;9741;51.020;5.304;2023-02-17T14:15:23;0.10;;;0.10;;
19213;SDS011;9741;51.020;5.304;2023-02-17T14:17:53;0.10;;;0.10;;
19213;SDS011;9741;51.020;5.304;2023-02-17T14:20:29;0.23;;;0.23;;
19213;SDS011;9741;51.020;5.304;2023-02-17T14:22:59;0.20;;;0.20;;
19213;SDS011;9741;51.020;5.304;2023-02-17T14:25:28;0.20;;;0.20;;
19213;SDS011;9741;51.020;5.304;2023-02-17T14:27:56;0.20;;;0.20;;
19213;SDS011;9741;51.020;5.304;2023-02-17T14:30:28;0.30;;;0.30;;
19213;SDS011;9741;51.020;5.304;2023-02-17T14:33:00;3.17;;;0.63;;
19213;SDS011;9741;51.020;5.304;2023-02-17T14:35:29;0.10;;;0.10;;
19213;SDS011;9741;51.020;5.304;2023-02-17T14:38:05;0.17;;;0.17;;
19213;SDS011;9741;51.020;5.304;2023-02-17T14:40:34;0.17;;;0.17;;
19213;SDS011;9741;51.020;5.304;2023-02-17T14:43:01;0.37;;;0.37;;
19213;SDS011;9741;51.020;5.304;2023-02-17T14:45:29;1.50;;;0.27;;
19213;SDS011;9741;51.020;5.304;2023-02-17T14:47:56;0.20;;;0.20;;
19213;SDS011;9741;51.020;5.304;2023-02-17T14:50:23;0.20;;;0.20;;
19213;SDS011;9741;51.020;5.304;2023-02-17T14:52:50;0.10;;;0.10;;
19213;SDS011;9741;51.020;5.304;2023-02-17T14:55:21;0.30;;;0.30;;
19213;SDS011;9741;51.020;5.304;2023-02-17T14:57:55;2.50;;;0.30;;
19213;SDS011;9741;51.020;5.304;2023-02-17T15:00:22;0.30;;;0.30;;
19213;SDS011;9741;51.020;5.304;2023-02-17T15:02:50;0.30;;;0.30;;
19213;SDS011;9741;51.020;5.304;2023-02-17T15:05:18;0.27;;;0.27;;
19213;SDS011;9741;51.020;5.304;2023-02-17T15:07:45;0.37;;;0.37;;
19213;SDS011;9741;51.020;5.304;2023-02-17T15:10:15;0.73;;;0.60;;
19213;SDS011;9741;51.020;5.304;2023-02-17T15:12:47;0.10;;;0.10;;
19213;SDS011;9741;51.020;5.304;2023-02-17T15:15:14;1.90;;;0.87;;
19213;SDS011;9741;51.020;5.304;2023-02-17T15:17:42;0.30;;;0.30;;
19213;SDS011;9741;51.020;5.304;2023-02-17T15:20:12;0.27;;;0.27;;
19213;SDS011;9741;51.020;5.304;2023-02-17T15:22:40;0.40;;;0.40;;
19213;SDS011;9741;51.020;5.304;2023-02-17T15:25:12;0.20;;;0.20;;
19213;SDS011;9741;51.020;5.304;2023-02-17T15:27:41;0.30;;;0.30;;
19213;SDS011;9741;51.020;5.304;2023-02-17T15:30:09;1.00;;;0.60;;
19213;SDS011;9741;51.020;5.304;2023-02-17T15:32:37;0.40;;;0.40;;
19213;SDS011;9741;51.020;5.304;2023-02-17T15:35:11;0.30;;;0.30;;
19213;SDS011;9741;51.020;5.304;2023-02-17T15:37:45;0.30;;;0.30;;